Time;durP1;ratioP1;P1;durP2;ratioP2;P2;SDS_P1;SDS_P2;PMS_P1;PMS_P2;Temp;Humidity;BMP_temperature;BMP_pressure;BME280_temperature;BME280_humidity;BME280_pressure;Samples;Min_cycle;Max_cycle;Signal;HPM_P1;HPM_P2
2023/05/27 00:01:10;;;;;;;28.75;6.53;;;8.40;99.90;;;;;;5050004;28;20477;-65
2023/05/27 00:03:36;;;;;;;22.65;6.35;;;8.40;99.90;;;;;;5065755;28;20048;-65
2023/05/27 00:06:02;;;;;;;27.13;6.30;;;8.40;99.90;;;;;;5063416;28;20584;-65
2023/05/27 00:08:27;;;;;;;22.15;6.07;;;8.40;99.90;;;;;;5044556;28;20474;-65
2023/05/27 00:10:53;;;;;;;25.40;6.55;;;8.30;99.90;;;;;;5046004;28;20370;-64
2023/05/27 00:13:19;;;;;;;18.15;5.78;;;8.30;99.90;;;;;;5046169;28;20454;-65
2023/05/27 00:15:44;;;;;;;21.08;5.15;;;8.30;99.90;;;;;;5043870;28;20048;-65
2023/05/27 00:18:11;;;;;;;11.88;5.32;;;8.30;99.90;;;;;;5045471;28;20037;-65
2023/05/27 00:20:36;;;;;;;17.75;5.95;;;8.20;99.90;;;;;;5052932;28;20076;-65
2023/05/27 00:23:02;;;;;;;25.92;6.60;;;8.10;99.90;;;;;;5045612;28;20076;-64
2023/05/27 00:25:27;;;;;;;22.38;6.95;;;8.10;99.90;;;;;;5060448;28;20052;-65
2023/05/27 00:27:54;;;;;;;18.80;4.95;;;8.00;99.90;;;;;;5044099;28;20045;-65
2023/05/27 00:30:20;;;;;;;18.10;5.90;;;8.00;99.90;;;;;;5069980;28;20051;-65
2023/05/27 00:32:46;;;;;;;20.67;5.97;;;7.90;99.90;;;;;;5063956;28;20040;-65
2023/05/27 00:35:12;;;;;;;21.50;5.82;;;7.90;99.90;;;;;;5062340;28;20044;-65
2023/05/27 00:37:38;;;;;;;18.58;5.70;;;7.80;99.90;;;;;;5052596;28;20121;-65
2023/05/27 00:40:04;;;;;;;31.05;6.55;;;7.80;99.90;;;;;;5044649;28;20049;-65
2023/05/27 00:42:30;;;;;;;25.02;7.20;;;7.80;99.90;;;;;;5043766;28;20045;-65
2023/05/27 00:44:56;;;;;;;22.90;6.97;;;7.80;99.90;;;;;;5045042;28;20045;-64
2023/05/27 00:47:23;;;;;;;28.42;6.90;;;7.80;99.90;;;;;;5043138;28;20547;-65
2023/05/27 00:49:49;;;;;;;27.58;6.85;;;7.80;99.90;;;;;;5043071;28;20076;-65
2023/05/27 00:52:15;;;;;;;26.45;6.30;;;7.80;99.90;;;;;;5043075;28;20198;-64
2023/05/27 00:54:41;;;;;;;30.35;6.72;;;7.80;99.90;;;;;;5043870;28;20033;-65
2023/05/27 00:57:07;;;;;;;27.63;6.20;;;7.90;99.90;;;;;;5043338;28;20045;-64
2023/05/27 00:59:33;;;;;;;25.60;6.68;;;7.80;99.90;;;;;;5046810;28;20519;-64
2023/05/27 01:01:59;;;;;;;27.08;6.53;;;7.80;99.90;;;;;;5064672;28;20037;-65
2023/05/27 01:04:25;;;;;;;29.27;6.72;;;7.80;99.90;;;;;;5064608;28;20915;-64
2023/05/27 01:07:29;;;;;;;32.60;7.28;;;7.80;99.90;;;;;;5055500;28;20178;-64
2023/05/27 01:10:09;;;;;;;27.10;6.80;;;7.90;99.90;;;;;;5043495;28;20037;-65
2023/05/27 01:12:57;;;;;;;27.58;6.65;;;7.90;99.90;;;;;;5045761;28;20049;-64
2023/05/27 01:15:23;;;;;;;32.63;7.40;;;7.90;99.90;;;;;;5070993;28;20049;-64
2023/05/27 01:17:54;;;;;;;26.90;7.50;;;7.90;99.90;;;;;;5050059;28;20047;-64
2023/05/27 01:20:20;;;;;;;24.92;6.55;;;7.90;99.90;;;;;;5049460;28;20559;-64
2023/05/27 01:22:47;;;;;;;24.98;5.63;;;7.90;99.90;;;;;;5049819;28;20044;-63
2023/05/27 01:25:14;;;;;;;27.45;6.45;;;7.90;99.90;;;;;;5049692;28;20102;-64
2023/05/27 01:27:40;;;;;;;28.90;6.32;;;7.90;99.90;;;;;;5066527;28;20037;-64
2023/05/27 01:30:06;;;;;;;22.13;5.50;;;7.80;99.90;;;;;;5048889;28;20052;-64
2023/05/27 01:32:51;;;;;;;21.27;5.72;;;7.80;99.90;;;;;;5049672;28;20037;-64
2023/05/27 01:35:37;;;;;;;24.23;6.07;;;7.80;99.90;;;;;;5048455;28;20520;-64
2023/05/27 01:38:08;;;;;;;28.05;6.00;;;7.70;99.90;;;;;;5055720;28;20496;-65
2023/05/27 01:40:36;;;;;;;27.23;7.25;;;7.70;99.90;;;;;;5069702;28;20380;-64
2023/05/27 01:43:03;;;;;;;31.52;6.55;;;7.80;99.90;;;;;;5048993;28;20056;-64
2023/05/27 01:45:30;;;;;;;24.83;6.78;;;7.80;99.90;;;;;;5050840;28;20482;-64
2023/05/27 01:47:55;;;;;;;33.17;7.90;;;7.80;99.90;;;;;;5051129;28;20467;-64
2023/05/27 01:50:21;;;;;;;32.92;7.47;;;7.80;99.90;;;;;;5064201;28;20116;-63
2023/05/27 01:52:47;;;;;;;27.58;6.68;;;7.80;99.90;;;;;;5053590;28;20057;-64
2023/05/27 01:55:12;;;;;;;28.23;7.55;;;7.80;99.90;;;;;;5050696;28;20492;-64
2023/05/27 01:57:38;;;;;;;21.58;6.65;;;7.80;99.90;;;;;;5049698;28;20436;-65
2023/05/27 02:00:05;;;;;;;31.50;7.53;;;7.80;99.90;;;;;;5048830;28;20064;-64
2023/05/27 02:02:31;;;;;;;32.67;7.82;;;7.80;99.90;;;;;;5049435;28;20044;-64
2023/05/27 02:04:57;;;;;;;43.30;9.32;;;7.80;99.90;;;;;;5050801;28;20049;-64
2023/05/27 02:07:22;;;;;;;40.70;8.40;;;7.80;99.90;;;;;;5048944;28;20400;-64
2023/05/27 02:09:48;;;;;;;29.13;7.63;;;7.90;99.90;;;;;;5050814;28;20122;-65
2023/05/27 02:12:14;;;;;;;32.17;7.97;;;7.90;99.90;;;;;;5051205;28;20059;-65
2023/05/27 02:14:40;;;;;;;30.85;7.63;;;7.90;99.90;;;;;;5049640;28;20629;-64
2023/05/27 02:17:07;;;;;;;33.70;8.23;;;7.90;99.90;;;;;;5048961;28;20037;-65
2023/05/27 02:19:33;;;;;;;36.78;7.65;;;7.90;99.90;;;;;;5049066;28;20045;-65
2023/05/27 02:21:58;;;;;;;31.55;7.43;;;7.90;99.90;;;;;;5048990;28;20155;-65
2023/05/27 02:24:24;;;;;;;27.73;6.70;;;7.80;99.90;;;;;;5049415;28;20262;-65
2023/05/27 02:26:50;;;;;;;25.42;6.25;;;7.90;99.90;;;;;;5047844;28;20545;-65
2023/05/27 02:29:15;;;;;;;22.58;6.80;;;7.80;99.90;;;;;;5047620;28;20220;-64
2023/05/27 02:31:41;;;;;;;22.75;6.65;;;7.80;99.90;;;;;;5045627;28;20041;-65
2023/05/27 02:34:06;;;;;;;31.55;7.25;;;7.80;99.90;;;;;;5046200;28;20044;-65
2023/05/27 02:36:33;;;;;;;25.33;6.63;;;7.80;99.90;;;;;;5046068;28;20040;-65
2023/05/27 02:38:59;;;;;;;27.67;6.53;;;7.80;99.90;;;;;;5046124;28;20471;-65
2023/05/27 02:41:24;;;;;;;23.02;6.53;;;7.80;99.90;;;;;;5047923;28;20043;-65
2023/05/27 02:43:50;;;;;;;25.63;6.65;;;7.80;99.90;;;;;;5046042;28;20040;-65
2023/05/27 02:46:16;;;;;;;30.02;6.88;;;7.90;99.90;;;;;;5045340;28;20045;-65
2023/05/27 02:48:41;;;;;;;28.55;7.18;;;7.90;99.90;;;;;;5047251;28;20099;-65
2023/05/27 02:51:07;;;;;;;22.73;6.55;;;7.90;99.90;;;;;;5043460;28;20093;-64
2023/05/27 02:53:32;;;;;;;28.02;6.97;;;7.90;99.90;;;;;;5045512;28;20128;-65
2023/05/27 02:55:58;;;;;;;35.58;7.47;;;7.90;99.90;;;;;;5047152;28;20456;-65
2023/05/27 02:58:23;;;;;;;29.63;7.93;;;7.90;99.90;;;;;;5046947;28;20064;-65
2023/05/27 03:00:49;;;;;;;30.02;6.38;;;7.90;99.90;;;;;;5044914;28;20132;-64
2023/05/27 03:03:15;;;;;;;29.65;7.53;;;7.90;99.90;;;;;;5046873;28;20047;-65
2023/05/27 03:05:40;;;;;;;29.33;5.95;;;7.90;99.90;;;;;;5043644;28;20059;-65
2023/05/27 03:08:06;;;;;;;22.30;6.13;;;7.90;99.90;;;;;;5046734;28;20404;-64
2023/05/27 03:10:33;;;;;;;23.02;7.20;;;8.00;99.90;;;;;;5046468;28;20077;-64
2023/05/27 03:12:58;;;;;;;21.70;5.78;;;8.00;99.90;;;;;;5046996;28;20037;-65
2023/05/27 03:15:24;;;;;;;29.73;7.10;;;8.00;99.90;;;;;;5045075;28;20052;-65
2023/05/27 03:17:50;;;;;;;28.20;6.32;;;8.00;99.90;;;;;;5045207;28;20521;-65
2023/05/27 03:20:18;;;;;;;25.95;6.35;;;8.00;99.90;;;;;;5044794;28;20120;-65
2023/05/27 03:22:44;;;;;;;20.17;7.05;;;8.00;99.90;;;;;;5045247;28;20504;-65
2023/05/27 03:25:10;;;;;;;29.45;6.53;;;8.00;99.90;;;;;;5045473;28;20269;-65
2023/05/27 03:27:36;;;;;;;25.98;6.53;;;8.00;99.90;;;;;;5081910;28;20048;-65
2023/05/27 03:30:04;;;;;;;27.00;6.82;;;8.00;99.90;;;;;;5058146;28;20416;-65
2023/05/27 03:32:29;;;;;;;22.42;5.93;;;8.00;99.90;;;;;;5044808;28;20538;-65
2023/05/27 03:34:55;;;;;;;29.60;6.63;;;8.00;99.90;;;;;;5028715;28;20045;-65
2023/05/27 03:37:21;;;;;;;23.35;6.40;;;8.00;99.90;;;;;;5044213;28;20894;-65
2023/05/27 03:39:46;;;;;;;28.92;6.22;;;8.00;99.90;;;;;;5044561;28;20060;-65
2023/05/27 03:42:12;;;;;;;29.83;6.05;;;8.00;99.90;;;;;;5046109;28;20041;-65
2023/05/27 03:44:38;;;;;;;27.17;6.55;;;8.10;99.90;;;;;;5044630;28;20660;-65
2023/05/27 03:47:04;;;;;;;24.67;5.28;;;8.10;99.90;;;;;;5045595;28;20091;-65
2023/05/27 03:49:30;;;;;;;28.60;6.18;;;8.10;99.90;;;;;;5032057;28;20047;-64
2023/05/27 03:51:55;;;;;;;27.73;6.13;;;8.20;99.90;;;;;;5044461;28;20458;-64
2023/05/27 03:54:21;;;;;;;28.40;5.55;;;8.20;99.90;;;;;;5045116;28;20059;-65
2023/05/27 03:56:46;;;;;;;20.98;5.85;;;8.20;99.90;;;;;;5046169;28;20124;-65
2023/05/27 03:59:13;;;;;;;21.02;5.50;;;8.20;99.90;;;;;;5044244;28;20057;-65
2023/05/27 04:01:39;;;;;;;28.42;5.93;;;8.20;99.90;;;;;;5045698;28;20272;-65
2023/05/27 04:04:05;;;;;;;26.05;6.57;;;8.30;99.90;;;;;;5044547;28;20080;-65
2023/05/27 04:06:31;;;;;;;30.55;6.78;;;8.30;99.90;;;;;;5045655;28;20068;-65
2023/05/27 04:08:57;;;;;;;29.98;6.05;;;8.30;99.90;;;;;;5045970;28;20048;-65
2023/05/27 04:11:26;;;;;;;30.23;6.15;;;8.30;99.90;;;;;;5045913;28;20025;-65
2023/05/27 04:13:52;;;;;;;18.20;5.88;;;8.30;99.90;;;;;;5028060;28;20071;-65
2023/05/27 04:16:17;;;;;;;24.05;5.75;;;8.40;99.90;;;;;;5044622;28;20667;-65
2023/05/27 04:18:48;;;;;;;26.20;6.32;;;8.40;99.90;;;;;;5044283;28;20036;-64
2023/05/27 04:21:14;;;;;;;31.17;6.38;;;8.50;99.90;;;;;;5044090;28;20033;-64
2023/05/27 04:23:40;;;;;;;23.08;6.38;;;8.70;99.90;;;;;;5045704;28;20076;-64
2023/05/27 04:26:06;;;;;;;26.27;6.45;;;8.80;99.90;;;;;;5044282;28;20072;-64
2023/05/27 04:28:34;;;;;;;26.17;5.65;;;9.00;99.90;;;;;;5044158;28;20667;-65
2023/05/27 04:30:59;;;;;;;20.40;5.50;;;9.00;99.90;;;;;;5044458;28;20090;-65
2023/05/27 04:33:26;;;;;;;23.00;5.55;;;9.00;99.90;;;;;;5027231;28;20500;-64
2023/05/27 04:35:53;;;;;;;27.88;6.40;;;9.10;99.90;;;;;;5045266;28;20048;-64
2023/05/27 04:38:20;;;;;;;25.10;6.03;;;9.10;99.90;;;;;;5044977;28;20557;-64
2023/05/27 04:40:52;;;;;;;28.15;6.53;;;9.10;99.90;;;;;;5043856;28;20602;-64
2023/05/27 04:43:20;;;;;;;20.25;5.43;;;9.10;99.90;;;;;;5043657;28;20148;-64
2023/05/27 04:45:46;;;;;;;26.05;5.63;;;9.20;99.90;;;;;;5043247;28;20045;-64
2023/05/27 04:48:12;;;;;;;28.63;6.30;;;9.30;99.90;;;;;;5042806;28;20051;-66
2023/05/27 04:50:39;;;;;;;25.17;6.22;;;9.40;99.90;;;;;;5041781;28;20390;-64
2023/05/27 04:53:04;;;;;;;28.92;5.28;;;9.50;99.90;;;;;;5043562;28;20136;-65
2023/05/27 04:55:30;;;;;;;25.52;5.38;;;9.60;99.90;;;;;;5043891;28;20156;-63
2023/05/27 04:57:56;;;;;;;21.48;5.45;;;9.60;99.90;;;;;;5045007;28;20061;-63
2023/05/27 05:00:35;;;;;;;26.35;5.50;;;9.60;99.90;;;;;;5044812;28;20049;-64
2023/05/27 05:03:05;;;;;;;26.23;5.35;;;9.50;99.90;;;;;;5043510;28;20056;-66
2023/05/27 05:05:31;;;;;;;22.73;5.75;;;9.50;99.90;;;;;;5042879;28;20053;-64
2023/05/27 05:07:57;;;;;;;29.17;5.88;;;9.50;99.90;;;;;;5043610;28;20041;-64
2023/05/27 05:10:23;;;;;;;27.85;5.47;;;9.40;99.90;;;;;;5043720;28;20047;-66
2023/05/27 05:12:49;;;;;;;29.98;6.40;;;9.40;99.90;;;;;;5043760;28;20044;-65
2023/05/27 05:15:15;;;;;;;26.98;5.70;;;9.40;99.90;;;;;;5044577;28;20729;-66
2023/05/27 05:17:41;;;;;;;30.23;6.50;;;9.40;99.90;;;;;;5044908;28;20125;-64
2023/05/27 05:20:08;;;;;;;26.30;5.55;;;9.50;99.90;;;;;;5044154;28;20275;-63
2023/05/27 05:22:34;;;;;;;25.23;6.10;;;9.60;99.90;;;;;;5043575;28;20033;-67
2023/05/27 05:25:00;;;;;;;23.23;5.82;;;9.60;99.90;;;;;;5043613;28;20041;-65
2023/05/27 05:27:27;;;;;;;26.85;5.80;;;9.60;99.90;;;;;;5059520;28;20556;-64
2023/05/27 05:29:53;;;;;;;56.10;8.15;;;9.60;99.90;;;;;;5042847;28;20125;-63
2023/05/27 05:32:19;;;;;;;26.55;5.97;;;9.70;99.90;;;;;;5044422;28;20112;-64
2023/05/27 05:34:44;;;;;;;27.45;6.40;;;9.80;99.90;;;;;;5044955;28;20033;-63
2023/05/27 05:37:13;;;;;;;26.23;6.32;;;10.10;99.90;;;;;;5043398;28;20041;-63
2023/05/27 05:39:42;;;;;;;24.63;5.50;;;10.10;99.90;;;;;;5042383;28;20041;-64
2023/05/27 05:42:07;;;;;;;27.08;5.95;;;10.10;99.90;;;;;;5043520;28;20048;-65
2023/05/27 05:44:34;;;;;;;23.98;5.50;;;10.00;99.90;;;;;;5044833;28;20555;-68
2023/05/27 05:46:59;;;;;;;36.10;6.78;;;10.00;99.90;;;;;;5042888;28;20048;-65
2023/05/27 05:49:25;;;;;;;26.00;6.35;;;10.00;99.90;;;;;;5043317;28;20459;-65
2023/05/27 05:51:51;;;;;;;28.15;6.15;;;10.00;99.90;;;;;;5043321;28;20036;-64
2023/05/27 05:54:16;;;;;;;27.75;6.30;;;10.00;99.90;;;;;;5044538;28;20086;-65
2023/05/27 05:56:42;;;;;;;26.15;6.47;;;10.00;99.90;;;;;;5042899;28;20033;-64
2023/05/27 05:59:07;;;;;;;30.60;6.35;;;10.00;99.90;;;;;;5043028;28;20052;-65
2023/05/27 06:01:33;;;;;;;25.70;6.15;;;10.00;99.90;;;;;;5081786;28;20480;-64
2023/05/27 06:04:03;;;;;;;28.63;6.82;;;10.00;99.90;;;;;;5068566;28;20033;-65
2023/05/27 06:06:30;;;;;;;26.15;6.43;;;9.90;99.90;;;;;;5067980;28;20090;-65
2023/05/27 06:08:55;;;;;;;24.40;6.88;;;10.00;99.90;;;;;;5053479;28;20373;-64
2023/05/27 06:11:21;;;;;;;21.98;5.57;;;9.90;99.90;;;;;;5046354;28;20037;-66
2023/05/27 06:13:47;;;;;;;25.02;6.43;;;10.00;99.90;;;;;;5047668;28;20041;-66
2023/05/27 06:16:13;;;;;;;29.58;6.93;;;10.00;99.90;;;;;;5046455;28;20049;-65
2023/05/27 06:18:38;;;;;;;23.52;7.57;;;10.10;99.90;;;;;;5048074;28;20043;-67
2023/05/27 06:21:04;;;;;;;25.63;6.32;;;10.10;99.90;;;;;;5044545;28;20060;-63
2023/05/27 06:23:29;;;;;;;24.70;7.07;;;10.20;99.90;;;;;;5046797;28;20131;-68
2023/05/27 06:25:55;;;;;;;28.50;6.57;;;10.30;99.90;;;;;;5047905;28;20049;-67
2023/05/27 06:28:21;;;;;;;26.45;7.72;;;10.40;99.90;;;;;;5047813;28;20182;-65
2023/05/27 06:30:46;;;;;;;30.40;7.43;;;10.60;99.90;;;;;;5046019;28;20054;-68
2023/05/27 06:33:12;;;;;;;31.15;7.57;;;10.90;99.90;;;;;;5047604;28;20037;-66
2023/05/27 06:35:37;;;;;;;35.42;7.57;;;11.10;99.90;;;;;;5058980;28;20115;-66
2023/05/27 06:38:03;;;;;;;30.20;7.72;;;11.30;99.90;;;;;;5063255;28;20032;-65
2023/05/27 06:40:29;;;;;;;29.15;7.85;;;11.50;99.90;;;;;;5049127;28;20129;-65
2023/05/27 06:42:54;;;;;;;29.48;7.20;;;11.60;99.90;;;;;;5065327;28;20064;-65
2023/05/27 06:45:20;;;;;;;27.75;7.65;;;11.70;99.90;;;;;;5063971;28;20048;-70
2023/05/27 06:47:45;;;;;;;26.83;7.47;;;11.80;99.90;;;;;;5064886;28;20055;-67
2023/05/27 06:50:11;;;;;;;33.28;7.07;;;11.80;99.90;;;;;;5062926;28;20045;-68
2023/05/27 06:52:37;;;;;;;22.70;6.75;;;11.80;99.90;;;;;;5063853;28;20484;-67
2023/05/27 06:55:02;;;;;;;32.67;7.18;;;12.00;99.90;;;;;;5066600;28;20033;-71
2023/05/27 06:57:28;;;;;;;30.23;6.90;;;12.00;99.90;;;;;;5052837;28;20151;-67
2023/05/27 06:59:55;;;;;;;21.70;5.75;;;12.00;99.90;;;;;;5051479;28;20059;-63
2023/05/27 07:02:22;;;;;;;32.85;6.35;;;11.90;99.90;;;;;;5065515;28;20059;-65
2023/05/27 07:04:47;;;;;;;27.42;7.00;;;11.90;99.90;;;;;;5064032;28;20504;-67
2023/05/27 07:07:13;;;;;;;28.00;7.53;;;11.90;99.90;;;;;;5046287;28;20449;-67
2023/05/27 07:09:38;;;;;;;24.00;6.85;;;11.90;99.90;;;;;;5062800;28;20127;-65
2023/05/27 07:12:06;;;;;;;24.27;6.72;;;11.90;99.90;;;;;;5064671;28;20037;-66
2023/05/27 07:14:31;;;;;;;28.00;6.72;;;12.00;99.90;;;;;;5095122;28;20036;-64
2023/05/27 07:16:57;;;;;;;23.08;6.20;;;12.10;99.90;;;;;;5064851;28;20059;-67
2023/05/27 07:19:23;;;;;;;34.50;7.57;;;12.30;99.90;;;;;;5062023;28;20041;-65
2023/05/27 07:21:48;;;;;;;26.70;6.03;;;12.40;99.90;;;;;;5043724;28;20430;-66
2023/05/27 07:24:14;;;;;;;21.75;4.75;;;12.60;99.90;;;;;;5045050;28;20037;-65
2023/05/27 07:26:40;;;;;;;23.00;4.38;;;12.70;99.90;;;;;;5045047;28;20053;-68
2023/05/27 07:29:06;;;;;;;24.55;5.35;;;12.80;99.90;;;;;;5044673;28;20561;-65
2023/05/27 07:31:32;;;;;;;19.92;4.75;;;13.00;99.90;;;;;;5044677;28;20059;-64
2023/05/27 07:33:57;;;;;;;19.55;4.97;;;13.00;99.90;;;;;;5045205;28;20514;-65
2023/05/27 07:36:23;;;;;;;25.52;5.10;;;13.10;99.90;;;;;;5042946;28;20043;-64
2023/05/27 07:38:48;;;;;;;22.45;5.07;;;13.20;99.90;;;;;;5061539;28;20540;-66
2023/05/27 07:41:14;;;;;;;23.92;4.65;;;13.30;99.90;;;;;;5045274;28;20045;-68
2023/05/27 07:43:40;;;;;;;23.15;5.10;;;13.20;99.90;;;;;;5045483;28;20048;-66
2023/05/27 07:46:06;;;;;;;153.70;11.57;;;13.20;99.90;;;;;;5048844;28;20115;-64
2023/05/27 07:48:31;;;;;;;21.15;5.25;;;13.10;99.90;;;;;;5061570;28;20037;-66
2023/05/27 07:50:57;;;;;;;30.38;5.75;;;13.30;99.90;;;;;;5052108;28;20045;-66
2023/05/27 07:53:23;;;;;;;19.42;5.10;;;13.30;99.90;;;;;;5059227;28;20037;-68
2023/05/27 07:55:49;;;;;;;24.38;5.50;;;13.20;99.90;;;;;;5047370;28;20040;-67
2023/05/27 07:58:14;;;;;;;20.02;4.70;;;13.30;99.90;;;;;;5065005;28;20052;-65
2023/05/27 08:00:40;;;;;;;27.25;6.28;;;13.30;99.90;;;;;;5058817;28;20039;-63
2023/05/27 08:03:06;;;;;;;22.65;5.40;;;13.30;99.90;;;;;;5052585;28;20048;-67
2023/05/27 08:05:32;;;;;;;23.63;5.53;;;13.40;99.90;;;;;;5060970;28;20039;-65
2023/05/27 08:07:58;;;;;;;25.60;5.85;;;13.40;99.90;;;;;;5059017;28;20045;-66
2023/05/27 08:10:25;;;;;;;19.17;5.00;;;13.50;99.90;;;;;;5060197;28;20264;-64
2023/05/27 08:12:50;;;;;;;30.40;5.57;;;13.60;99.90;;;;;;5065504;28;20040;-66
2023/05/27 08:15:16;;;;;;;20.95;5.07;;;13.80;99.90;;;;;;5059282;28;20047;-64
2023/05/27 08:17:43;;;;;;;17.55;4.47;;;13.90;99.90;;;;;;5064029;28;20032;-66
2023/05/27 08:20:10;;;;;;;24.38;5.68;;;14.20;99.90;;;;;;5055955;28;20071;-66
2023/05/27 08:22:36;;;;;;;38.53;6.68;;;14.20;99.90;;;;;;5057212;28;20083;-65
2023/05/27 08:25:02;;;;;;;20.92;5.70;;;14.00;99.90;;;;;;5060358;28;20620;-65
2023/05/27 08:27:49;;;;;;;21.15;5.18;;;13.90;99.90;;;;;;5063115;28;20129;-65
2023/05/27 08:30:15;;;;;;;20.75;5.22;;;13.90;99.90;;;;;;5054929;28;20044;-65
2023/05/27 08:32:41;;;;;;;22.90;5.75;;;14.00;99.90;;;;;;5063923;28;20029;-66
2023/05/27 08:35:08;;;;;;;23.38;5.40;;;14.10;99.90;;;;;;5063412;28;20075;-67
2023/05/27 08:37:34;;;;;;;28.42;5.50;;;14.10;99.90;;;;;;5041479;28;20047;-64
2023/05/27 08:39:59;;;;;;;23.65;6.28;;;14.10;99.90;;;;;;5043847;28;20131;-65
2023/05/27 08:42:25;;;;;;;17.50;5.32;;;14.00;99.90;;;;;;5044140;28;20045;-67
2023/05/27 08:44:51;;;;;;;23.38;5.55;;;14.10;99.90;;;;;;5044748;28;20123;-65
2023/05/27 08:47:17;;;;;;;20.90;5.75;;;14.10;99.90;;;;;;5044643;28;20056;-63
2023/05/27 08:49:43;;;;;;;23.77;6.05;;;14.20;99.90;;;;;;5043336;28;20274;-64
2023/05/27 08:52:17;;;;;;;29.48;6.22;;;14.20;99.90;;;;;;5042113;28;20049;-66
2023/05/27 08:54:42;;;;;;;22.17;5.93;;;14.30;99.90;;;;;;5061599;28;20037;-65
2023/05/27 08:57:10;;;;;;;26.35;5.82;;;14.40;99.90;;;;;;5063318;28;20036;-65
2023/05/27 08:59:37;;;;;;;28.17;6.25;;;14.50;99.90;;;;;;5053558;28;20088;-63
2023/05/27 09:02:11;;;;;;;20.40;5.03;;;14.60;99.90;;;;;;5043333;28;20048;-66
2023/05/27 09:04:38;;;;;;;22.48;5.20;;;14.90;99.90;;;;;;5043350;28;20045;-62
2023/05/27 09:07:04;;;;;;;23.48;6.47;;;14.90;99.90;;;;;;5043053;28;20052;-65
2023/05/27 09:09:30;;;;;;;28.08;5.93;;;14.90;99.90;;;;;;5043117;28;20041;-63
2023/05/27 09:11:59;;;;;;;19.05;5.70;;;15.00;99.90;;;;;;5044787;28;20033;-65
2023/05/27 09:14:27;;;;;;;19.92;5.43;;;15.10;99.90;;;;;;5043326;28;20055;-64
2023/05/27 09:16:53;;;;;;;26.77;6.65;;;15.20;99.90;;;;;;5044351;28;20450;-63
2023/05/27 09:19:19;;;;;;;24.60;5.00;;;15.30;99.90;;;;;;5042881;28;20041;-66
2023/05/27 09:21:45;;;;;;;23.80;5.78;;;15.50;99.90;;;;;;5053189;28;20499;-65
2023/05/27 09:24:11;;;;;;;23.85;5.40;;;15.70;99.90;;;;;;5044575;28;20108;-63
2023/05/27 09:26:37;;;;;;;23.05;6.13;;;15.80;99.90;;;;;;5043161;28;20077;-65
2023/05/27 09:29:09;;;;;;;22.50;5.60;;;15.90;99.90;;;;;;5042614;28;20041;-64
2023/05/27 09:31:40;;;;;;;21.40;5.93;;;15.90;99.90;;;;;;5043266;28;20060;-64
2023/05/27 09:34:16;;;;;;;22.90;6.13;;;15.90;99.90;;;;;;5045452;28;20044;-64
2023/05/27 09:36:46;;;;;;;21.77;5.68;;;15.90;99.90;;;;;;5045148;28;20071;-63
2023/05/27 09:39:14;;;;;;;26.58;5.50;;;15.90;99.90;;;;;;5048187;28;20076;-65
2023/05/27 09:41:41;;;;;;;20.42;5.93;;;15.90;99.90;;;;;;5047048;28;20056;-66
2023/05/27 09:44:07;;;;;;;24.40;5.32;;;15.80;99.90;;;;;;5047372;28;20535;-64
2023/05/27 09:46:33;;;;;;;21.35;5.68;;;15.80;99.90;;;;;;5053725;28;20059;-66
2023/05/27 09:49:00;;;;;;;22.20;6.35;;;15.90;99.90;;;;;;5066596;28;20079;-63
2023/05/27 09:51:32;;;;;;;18.13;5.50;;;16.10;99.90;;;;;;5052984;28;20347;-64
2023/05/27 09:53:58;;;;;;;26.60;5.95;;;16.30;99.90;;;;;;5048202;28;20124;-65
2023/05/27 09:56:26;;;;;;;21.77;5.50;;;16.20;99.90;;;;;;5048122;28;20403;-64
2023/05/27 09:58:56;;;;;;;19.80;5.72;;;16.30;99.90;;;;;;5047577;28;20048;-67
2023/05/27 10:01:29;;;;;;;23.58;5.60;;;16.50;99.90;;;;;;5046497;28;20052;-65
2023/05/27 10:03:58;;;;;;;18.33;5.60;;;16.60;99.90;;;;;;5048240;28;20048;-66
2023/05/27 10:06:25;;;;;;;23.10;6.28;;;16.50;99.90;;;;;;5065156;28;20579;-64
2023/05/27 10:08:52;;;;;;;22.98;5.55;;;16.60;99.90;;;;;;5056208;28;20045;-66
2023/05/27 10:11:18;;;;;;;20.27;5.35;;;16.70;99.90;;;;;;5048564;28;20049;-64
2023/05/27 10:13:45;;;;;;;21.23;5.95;;;16.60;99.90;;;;;;5046679;28;20048;-63
2023/05/27 10:16:26;;;;;;;17.25;6.03;;;16.50;99.90;;;;;;5047493;28;20382;-66
2023/05/27 10:18:56;;;;;;;21.23;5.68;;;16.60;99.90;;;;;;5047512;28;20120;-66
2023/05/27 10:21:27;;;;;;;17.02;5.50;;;16.60;99.90;;;;;;5045876;28;20253;-66
2023/05/27 10:24:03;;;;;;;20.27;5.60;;;16.70;99.90;;;;;;5047775;28;20041;-67
2023/05/27 10:26:44;;;;;;;18.65;6.10;;;16.60;99.90;;;;;;5046462;28;20055;-65
2023/05/27 10:29:12;;;;;;;16.50;5.78;;;16.50;99.10;;;;;;5045843;28;20091;-66
2023/05/27 10:31:48;;;;;;;22.27;5.38;;;16.50;99.90;;;;;;5030271;28;20041;-66
2023/05/27 10:34:14;;;;;;;19.15;6.32;;;16.50;99.90;;;;;;5046044;28;20052;-68
2023/05/27 10:36:40;;;;;;;26.58;6.22;;;16.50;99.90;;;;;;5045891;28;20045;-67
2023/05/27 10:39:17;;;;;;;20.73;6.03;;;16.50;99.90;;;;;;5045642;28;20045;-66
2023/05/27 10:41:50;;;;;;;29.00;5.85;;;16.50;99.90;;;;;;5046410;28;20076;-66
2023/05/27 10:44:28;;;;;;;21.42;5.78;;;16.50;99.90;;;;;;5046385;28;20052;-66
2023/05/27 10:47:03;;;;;;;19.77;5.93;;;16.60;99.90;;;;;;5064578;28;20067;-65
2023/05/27 10:49:36;;;;;;;20.23;5.88;;;16.60;99.90;;;;;;5063735;28;20045;-65
2023/05/27 10:52:12;;;;;;;22.77;6.22;;;16.60;99.90;;;;;;5044291;28;20037;-68
2023/05/27 10:54:50;;;;;;;21.35;6.03;;;16.70;99.00;;;;;;5044871;28;20049;-66
2023/05/27 10:57:17;;;;;;;19.33;5.80;;;16.80;99.90;;;;;;5045844;28;20049;-65
2023/05/27 10:59:55;;;;;;;16.00;5.95;;;17.00;99.90;;;;;;5029003;28;20510;-64
2023/05/27 11:02:21;;;;;;;19.85;5.78;;;17.00;99.10;;;;;;5047131;28;20126;-64
2023/05/27 11:04:50;;;;;;;19.67;6.32;;;17.00;99.90;;;;;;5046966;28;20111;-66
2023/05/27 11:07:21;;;;;;;16.30;5.53;;;16.90;99.00;;;;;;5043910;28;20055;-65
2023/05/27 11:09:47;;;;;;;21.27;5.82;;;17.10;99.40;;;;;;5044974;28;20037;-67
2023/05/27 11:12:16;;;;;;;17.98;6.32;;;17.10;99.10;;;;;;5045834;28;20040;-64
2023/05/27 11:14:43;;;;;;;19.52;5.82;;;17.10;98.20;;;;;;5065431;28;20040;-64
2023/05/27 11:17:12;;;;;;;21.40;5.47;;;17.30;98.50;;;;;;5046231;28;20039;-66
2023/05/27 11:19:42;;;;;;;22.40;6.03;;;17.40;99.20;;;;;;5062990;28;20094;-67
2023/05/27 11:22:08;;;;;;;20.27;6.40;;;17.40;98.80;;;;;;5062933;28;20447;-64
2023/05/27 11:24:36;;;;;;;19.63;5.65;;;17.40;98.20;;;;;;5057760;28;20047;-65
2023/05/27 11:27:09;;;;;;;18.95;6.03;;;17.30;98.30;;;;;;5048569;28;20513;-68
2023/05/27 11:29:36;;;;;;;20.63;5.73;;;17.40;98.50;;;;;;5061219;28;20455;-65
2023/05/27 11:32:03;;;;;;;22.90;6.22;;;17.60;99.20;;;;;;5064622;28;20731;-65
2023/05/27 11:34:29;;;;;;;27.27;6.50;;;17.70;98.30;;;;;;5064229;28;20098;-64
2023/05/27 11:36:56;;;;;;;21.63;6.82;;;17.60;98.30;;;;;;5062951;28;20504;-67
2023/05/27 11:39:21;;;;;;;20.67;5.85;;;17.50;98.50;;;;;;5049218;28;20052;-67
2023/05/27 11:41:49;;;;;;;22.27;5.82;;;17.60;99.20;;;;;;5045139;28;20049;-64
2023/05/27 11:44:15;;;;;;;22.30;7.15;;;17.50;98.50;;;;;;5046299;28;20098;-67
2023/05/27 11:46:43;;;;;;;25.00;6.63;;;17.50;98.80;;;;;;5052509;28;20044;-64
2023/05/27 11:49:10;;;;;;;18.77;6.15;;;17.60;99.60;;;;;;5065971;28;20094;-65
2023/05/27 11:51:44;;;;;;;21.23;6.10;;;17.70;98.70;;;;;;5062825;28;20118;-67
2023/05/27 11:54:22;;;;;;;20.25;5.88;;;17.90;98.50;;;;;;5052194;28;20116;-65
2023/05/27 11:56:48;;;;;;;18.80;6.32;;;18.00;97.20;;;;;;5051007;28;20395;-68
2023/05/27 11:59:14;;;;;;;18.02;6.47;;;18.00;98.00;;;;;;5065363;28;20109;-67
2023/05/27 12:01:41;;;;;;;18.58;5.70;;;18.00;98.30;;;;;;5045157;28;20045;-67
2023/05/27 12:04:06;;;;;;;16.25;5.70;;;17.90;97.40;;;;;;5037602;28;20446;-65
2023/05/27 12:06:32;;;;;;;20.73;6.40;;;18.10;98.00;;;;;;5057942;28;20037;-65
2023/05/27 12:08:58;;;;;;;20.30;5.90;;;18.20;98.30;;;;;;5045501;28;20037;-65
2023/05/27 12:11:24;;;;;;;17.80;6.70;;;18.20;97.60;;;;;;5045516;28;20045;-64
2023/05/27 12:13:51;;;;;;;22.52;6.45;;;18.30;97.30;;;;;;5058373;28;20101;-66
2023/05/27 12:16:16;;;;;;;20.20;5.68;;;18.20;97.20;;;;;;5049367;28;20082;-67
2023/05/27 12:18:42;;;;;;;18.13;5.78;;;18.20;97.40;;;;;;5060648;28;20037;-65
2023/05/27 12:21:08;;;;;;;17.60;5.63;;;18.20;97.60;;;;;;5049084;28;20043;-64
2023/05/27 12:23:33;;;;;;;22.42;5.75;;;18.30;97.10;;;;;;5037960;28;20079;-63
2023/05/27 12:26:00;;;;;;;17.50;5.47;;;18.30;97.50;;;;;;5043799;28;20072;-66
2023/05/27 12:28:26;;;;;;;16.83;5.57;;;18.30;97.40;;;;;;5058684;28;20067;-67
2023/05/27 12:30:51;;;;;;;22.45;6.63;;;18.30;97.30;;;;;;5052236;28;20185;-65
2023/05/27 12:33:17;;;;;;;18.40;6.22;;;18.30;96.70;;;;;;5043743;28;20037;-66
2023/05/27 12:35:43;;;;;;;18.27;6.03;;;18.20;96.30;;;;;;5043119;28;20444;-64
2023/05/27 12:38:09;;;;;;;19.48;5.85;;;18.30;97.20;;;;;;5048825;28;20068;-63
2023/05/27 12:40:34;;;;;;;24.23;6.40;;;18.30;96.80;;;;;;5044881;28;20076;-65